Time;durP1;ratioP1;P1;durP2;ratioP2;P2;SDS_P1;SDS_P2;PMS_P1;PMS_P2;Temp;Humidity;BMP_temperature;BMP_pressure;BME280_temperature;BME280_humidity;BME280_pressure;Samples;Min_cycle;Max_cycle;Signal;HPM_P1;HPM_P2
2023/09/21 00:00:34;;;;;;;2.35;1.60;;;15.80;99.90;;;15.53;100.00;96329.50;5054833;28;20035;-43
2023/09/21 00:03:00;;;;;;;1.83;1.40;;;15.80;99.90;;;15.56;100.00;96347.84;5058030;28;20032;-41
2023/09/21 00:05:31;;;;;;;3.40;1.48;;;15.70;99.90;;;15.51;100.00;96347.34;5063906;28;20226;-42
2023/09/21 00:07:57;;;;;;;1.80;1.23;;;15.60;99.90;;;15.44;100.00;96346.94;5062194;28;20475;-45
2023/09/21 00:10:31;;;;;;;2.53;1.60;;;15.60;99.90;;;15.39;100.00;96349.94;5045526;28;20040;-41
2023/09/21 00:12:59;;;;;;;2.30;1.60;;;15.50;99.90;;;15.35;100.00;96347.63;5048102;28;21002;-43
2023/09/21 00:15:30;;;;;;;4.03;1.88;;;15.50;99.90;;;15.31;100.00;96343.47;5062188;28;20028;-41
2023/09/21 00:17:59;;;;;;;3.88;1.70;;;15.40;99.90;;;15.28;100.00;96349.88;5071279;28;20032;-42
2023/09/21 00:20:28;;;;;;;3.33;1.63;;;15.40;99.90;;;15.25;100.00;96334.16;5060380;28;20552;-42
2023/09/21 00:22:54;;;;;;;4.35;1.60;;;15.40;99.90;;;15.28;100.00;96350.72;5063004;28;20107;-42
2023/09/21 00:25:22;;;;;;;1.65;1.40;;;15.40;99.90;;;15.32;100.00;96338.06;5059424;28;20024;-42
2023/09/21 00:27:48;;;;;;;4.38;1.95;;;15.50;99.90;;;15.34;100.00;96338.78;5060461;28;20354;-43
2023/09/21 00:30:14;;;;;;;2.15;1.60;;;15.50;99.90;;;15.38;100.00;96331.44;5051493;28;20037;-41
2023/09/21 00:32:40;;;;;;;3.83;2.00;;;15.50;99.90;;;15.42;100.00;96327.63;5048465;28;20155;-42
2023/09/21 00:35:09;;;;;;;2.38;1.45;;;15.60;99.90;;;15.44;100.00;96320.38;5042353;28;20039;-42
2023/09/21 00:37:39;;;;;;;2.10;1.52;;;15.60;99.90;;;15.50;100.00;96322.56;5046020;28;20459;-43
2023/09/21 00:40:17;;;;;;;3.08;1.50;;;15.70;99.90;;;15.55;100.00;96316.94;5049975;28;20044;-42
2023/09/21 00:42:44;;;;;;;3.00;1.48;;;15.70;99.90;;;15.51;100.00;96307.50;5058905;28;20040;-41
2023/09/21 00:45:10;;;;;;;2.97;1.70;;;15.70;99.90;;;15.56;100.00;96311.50;5058164;28;20029;-41
2023/09/21 00:47:47;;;;;;;2.05;1.30;;;15.70;99.90;;;15.57;100.00;96304.38;5056592;28;20048;-42
2023/09/21 00:50:13;;;;;;;2.20;1.50;;;15.70;99.90;;;15.52;100.00;96307.38;5054958;28;20036;-42
2023/09/21 00:52:43;;;;;;;3.17;1.60;;;15.70;99.90;;;15.47;100.00;96306.88;5053489;28;20036;-43
2023/09/21 00:55:16;;;;;;;2.65;1.40;;;15.60;99.90;;;15.43;100.00;96305.41;5056523;28;20499;-41
2023/09/21 00:57:44;;;;;;;2.28;1.55;;;15.60;99.90;;;15.39;100.00;96307.44;5051713;28;20400;-42
2023/09/21 01:00:13;;;;;;;2.47;1.50;;;15.50;99.90;;;15.35;100.00;96302.47;5061595;28;20036;-42
2023/09/21 01:02:47;;;;;;;2.28;1.50;;;15.50;99.90;;;15.31;100.00;96303.63;5061604;28;20025;-42
2023/09/21 01:05:13;;;;;;;2.03;1.52;;;15.50;99.90;;;15.30;100.00;96302.78;5061965;28;20028;-43
2023/09/21 01:07:42;;;;;;;2.13;1.58;;;15.50;99.90;;;15.30;100.00;96296.66;5052470;28;20389;-43
2023/09/21 01:10:13;;;;;;;3.92;1.95;;;15.50;99.90;;;15.30;100.00;96300.13;5062965;28;20016;-42
2023/09/21 01:12:43;;;;;;;1.70;1.45;;;15.50;99.90;;;15.29;100.00;96293.16;5055489;28;20033;-42
2023/09/21 01:15:10;;;;;;;1.88;1.50;;;15.40;99.90;;;15.26;100.00;96288.91;5058130;28;20036;-41
2023/09/21 01:17:39;;;;;;;2.17;1.50;;;15.40;99.90;;;15.24;100.00;96290.81;5054551;28;20024;-44
2023/09/21 01:20:22;;;;;;;2.20;1.48;;;15.40;99.90;;;15.22;100.00;96287.44;5056218;28;20096;-41
2023/09/21 01:23:34;;;;;;;2.28;1.33;;;15.40;99.90;;;15.16;100.00;96287.88;5047735;28;20032;-42
2023/09/21 01:26:00;;;;;;;3.78;1.75;;;15.40;99.90;;;15.13;100.00;96287.25;5029016;28;20512;-41
2023/09/21 01:28:29;;;;;;;2.22;1.52;;;15.30;99.90;;;15.11;100.00;96287.38;5049627;28;20552;-42
2023/09/21 01:30:57;;;;;;;2.53;1.67;;;15.30;99.90;;;15.06;100.00;96284.22;5058307;28;20035;-43
2023/09/21 01:33:24;;;;;;;3.47;1.50;;;15.30;99.90;;;15.13;100.00;96289.91;5055166;28;20119;-42
2023/09/21 01:35:50;;;;;;;2.10;1.60;;;15.30;99.90;;;15.11;100.00;96279.41;5056084;28;20051;-43
2023/09/21 01:38:19;;;;;;;2.58;1.80;;;15.30;99.90;;;15.13;100.00;96268.66;5053028;28;20037;-42
2023/09/21 01:40:46;;;;;;;2.88;1.50;;;15.40;99.90;;;15.24;100.00;96274.06;5051721;28;20085;-41
2023/09/21 01:43:15;;;;;;;2.78;1.50;;;15.40;99.90;;;15.27;100.00;96269.34;5061865;28;20046;-43
2023/09/21 01:45:42;;;;;;;2.63;1.73;;;15.50;99.90;;;15.20;100.00;96253.97;5064525;28;20042;-43
2023/09/21 01:48:11;;;;;;;2.13;1.50;;;15.50;99.90;;;15.33;100.00;96265.41;5052517;28;20063;-43
2023/09/21 01:50:39;;;;;;;3.97;1.80;;;15.50;99.90;;;15.36;100.00;96270.50;5054100;28;20311;-42
2023/09/21 01:53:05;;;;;;;2.88;1.80;;;15.60;99.90;;;15.39;100.00;96264.94;5058095;28;20040;-41
2023/09/21 01:55:31;;;;;;;4.45;1.80;;;15.60;99.90;;;15.43;100.00;96263.75;5056834;28;20427;-41
2023/09/21 01:57:57;;;;;;;2.67;1.67;;;15.60;99.90;;;15.49;100.00;96265.09;5052417;28;20032;-42
2023/09/21 02:00:25;;;;;;;5.70;1.80;;;15.70;99.90;;;15.55;100.00;96266.44;5061710;28;20036;-43
2023/09/21 02:02:53;;;;;;;2.53;1.67;;;15.70;99.90;;;15.59;100.00;96260.78;5055818;28;20470;-45
2023/09/21 02:05:19;;;;;;;2.17;1.60;;;15.80;99.90;;;15.63;100.00;96250.75;5065508;28;20016;-41
2023/09/21 02:07:45;;;;;;;4.18;1.90;;;15.80;99.90;;;15.65;100.00;96255.00;5059412;28;20028;-43
2023/09/21 02:10:11;;;;;;;2.95;1.60;;;15.80;99.90;;;15.68;100.00;96253.91;5061117;28;20395;-41
2023/09/21 02:12:38;;;;;;;1.98;1.45;;;15.80;99.90;;;15.70;100.00;96249.34;5056127;28;20040;-41
2023/09/21 02:15:12;;;;;;;2.03;1.60;;;15.90;99.90;;;15.62;100.00;96241.09;5059559;28;20602;-43
2023/09/21 02:17:39;;;;;;;2.53;1.58;;;15.80;99.90;;;15.65;100.00;96240.88;5057037;28;20123;-42
2023/09/21 02:20:17;;;;;;;2.80;1.85;;;15.80;99.90;;;15.61;100.00;96226.13;5058415;28;20073;-43
2023/09/21 02:22:46;;;;;;;2.50;1.60;;;15.80;99.90;;;15.60;100.00;96229.75;5077701;28;20037;-41
2023/09/21 02:25:15;;;;;;;3.10;2.00;;;15.80;99.90;;;15.59;100.00;96220.91;5062439;28;20028;-41
2023/09/21 02:27:45;;;;;;;2.08;1.50;;;15.80;99.90;;;15.62;100.00;96222.50;5039407;28;20029;-41
2023/09/21 02:30:13;;;;;;;3.83;1.67;;;15.80;99.90;;;15.55;100.00;96213.31;5056232;28;20035;-41
2023/09/21 02:32:41;;;;;;;3.47;1.63;;;15.80;99.90;;;15.64;100.00;96217.91;5060907;28;20036;-41
2023/09/21 02:35:16;;;;;;;3.13;2.00;;;15.80;99.90;;;15.65;100.00;96215.16;5061104;28;20032;-42
2023/09/21 02:37:44;;;;;;;3.60;1.90;;;15.80;99.90;;;15.68;100.00;96206.09;5058114;28;20079;-41
2023/09/21 02:40:14;;;;;;;4.20;2.00;;;15.90;99.90;;;15.72;100.00;96210.22;5061536;28;20025;-42
2023/09/21 02:42:44;;;;;;;4.07;1.98;;;15.90;99.90;;;15.74;100.00;96213.63;5059499;28;20139;-43
2023/09/21 02:45:11;;;;;;;2.83;2.00;;;15.90;99.90;;;15.70;100.00;96195.34;5065112;28;20080;-42
2023/09/21 02:47:38;;;;;;;2.40;1.88;;;15.90;99.90;;;15.77;100.00;96213.41;5061593;28;20060;-41
2023/09/21 02:50:14;;;;;;;3.70;1.77;;;15.90;99.90;;;15.78;100.00;96211.59;5064196;28;20631;-41
2023/09/21 02:52:45;;;;;;;3.75;1.90;;;16.00;99.90;;;15.81;100.00;96211.38;5063054;28;20427;-41
2023/09/21 02:55:20;;;;;;;4.35;1.80;;;16.00;99.90;;;15.83;100.00;96206.78;5065148;28;20026;-43
2023/09/21 02:57:57;;;;;;;2.83;1.85;;;16.00;99.90;;;15.83;100.00;96199.63;5057344;28;20028;-42
2023/09/21 03:00:34;;;;;;;2.65;1.83;;;16.00;99.90;;;15.84;100.00;96203.13;5053573;28;20535;-42
2023/09/21 03:03:05;;;;;;;2.67;1.80;;;16.00;99.90;;;15.80;100.00;96189.22;5059620;28;20738;-41
2023/09/21 03:05:33;;;;;;;2.17;1.67;;;16.00;99.90;;;15.79;100.00;96189.34;5060565;28;20039;-42
2023/09/21 03:08:04;;;;;;;3.10;1.67;;;16.00;99.90;;;15.79;100.00;96190.22;5061675;28;20021;-42
2023/09/21 03:10:30;;;;;;;2.65;1.83;;;16.00;99.90;;;15.76;100.00;96189.59;5064329;28;20039;-41
2023/09/21 03:12:56;;;;;;;2.47;1.73;;;16.00;99.90;;;15.84;100.00;96203.13;5053415;28;20036;-41
2023/09/21 03:15:22;;;;;;;2.47;1.85;;;16.00;99.90;;;15.85;100.00;96202.19;5061675;28;20033;-43
2023/09/21 03:17:54;;;;;;;4.03;1.50;;;16.00;99.90;;;15.84;100.00;96204.00;5057364;28;20126;-42
2023/09/21 03:20:36;;;;;;;5.50;1.70;;;16.00;99.90;;;15.82;100.00;96205.91;5060707;28;20032;-41
2023/09/21 03:23:09;;;;;;;2.33;1.90;;;16.00;99.90;;;15.79;100.00;96199.97;5052007;28;20236;-41
2023/09/21 03:25:40;;;;;;;3.05;1.92;;;15.90;99.90;;;15.72;100.00;96186.31;5054965;28;20024;-42
2023/09/21 03:28:13;;;;;;;2.40;1.70;;;15.90;99.90;;;15.74;100.00;96192.38;5059695;28;20084;-42
2023/09/21 03:30:40;;;;;;;3.22;1.77;;;15.90;99.90;;;15.72;100.00;96186.31;5055720;28;20056;-42
2023/09/21 03:33:07;;;;;;;2.85;2.00;;;15.80;99.90;;;15.69;100.00;96183.03;5059829;28;20127;-41
2023/09/21 03:35:33;;;;;;;2.72;1.80;;;15.80;99.90;;;15.65;100.00;96185.09;5057519;28;20036;-41
2023/09/21 03:37:59;;;;;;;3.05;1.83;;;15.80;99.90;;;15.68;100.00;96181.31;5060024;28;20119;-42
2023/09/21 03:40:26;;;;;;;2.88;1.67;;;15.80;99.90;;;15.68;100.00;96182.16;5055357;28;21143;-41
2023/09/21 03:45:25;;;;;;;4.13;1.80;;;15.80;99.90;;;15.69;100.00;96194.50;5035023;28;20060;-40
2023/09/21 03:47:54;;;;;;;3.67;2.05;;;15.80;99.90;;;15.60;100.00;96171.28;5030611;28;20120;-41
2023/09/21 03:50:27;;;;;;;2.47;1.80;;;15.90;99.90;;;15.69;100.00;96183.88;5034475;28;20029;-40
2023/09/21 03:52:54;;;;;;;3.75;1.80;;;15.90;99.90;;;15.72;100.00;96181.00;5016170;28;20470;-41
2023/09/21 03:55:20;;;;;;;2.92;1.92;;;15.90;99.90;;;15.74;100.00;96179.09;5030422;28;20112;-40
2023/09/21 03:57:47;;;;;;;2.85;1.90;;;15.90;99.90;;;15.75;100.00;96175.44;5024925;28;20033;-41
2023/09/21 04:00:29;;;;;;;3.45;2.00;;;15.90;99.90;;;15.78;100.00;96174.38;5030635;28;20031;-41
2023/09/21 04:03:00;;;;;;;2.47;1.83;;;15.90;99.90;;;15.79;100.00;96168.06;5021285;28;22046;-40
2023/09/21 04:05:26;;;;;;;3.33;1.98;;;15.90;99.90;;;15.82;100.00;96168.69;5027361;28;20041;-42
2023/09/21 04:07:53;;;;;;;2.15;1.50;;;16.00;99.90;;;15.82;100.00;96166.03;5026020;28;20047;-40
2023/09/21 04:10:19;;;;;;;3.35;1.80;;;16.00;99.90;;;15.83;100.00;96167.72;5031646;28;20469;-41
2023/09/21 04:12:45;;;;;;;6.10;2.15;;;16.00;99.90;;;15.86;100.00;96174.63;5021558;28;20040;-41
2023/09/21 04:15:11;;;;;;;2.38;1.85;;;16.00;99.90;;;15.85;100.00;96172.94;5030411;28;20844;-41
2023/09/21 04:17:41;;;;;;;3.67;1.98;;;16.00;99.90;;;15.84;100.00;96172.09;5031208;28;20442;-40
2023/09/21 04:20:11;;;;;;;7.30;2.00;;;16.00;99.90;;;15.84;100.00;96168.56;5031685;28;20035;-41
2023/09/21 04:22:42;;;;;;;2.15;1.90;;;16.00;99.90;;;15.85;100.00;96164.97;5022812;28;20663;-41
2023/09/21 04:25:10;;;;;;;2.65;1.90;;;16.00;99.90;;;15.86;100.00;96158.66;5034014;28;20075;-41
2023/09/21 04:27:39;;;;;;;3.25;2.00;;;16.00;99.90;;;15.88;100.00;96148.78;5027697;28;20043;-41
2023/09/21 04:30:08;;;;;;;3.13;1.88;;;16.00;99.90;;;15.81;100.00;96128.97;5029185;28;20041;-43
2023/09/21 04:32:36;;;;;;;4.43;2.05;;;16.10;99.90;;;15.95;100.00;96152.66;5031126;28;20447;-41
2023/09/21 04:35:05;;;;;;;3.22;2.10;;;16.10;99.90;;;15.96;100.00;96142.84;5027526;28;20112;-41
2023/09/21 04:37:34;;;;;;;5.10;2.20;;;16.10;99.90;;;15.98;100.00;96149.72;5031726;28;20457;-41
2023/09/21 04:40:04;;;;;;;3.53;2.10;;;16.10;99.90;;;15.99;100.00;96150.59;5031448;28;20044;-41
2023/09/21 04:42:32;;;;;;;2.42;1.73;;;16.10;99.90;;;15.95;100.00;96143.81;5020015;28;20037;-41
2023/09/21 04:44:58;;;;;;;6.72;1.95;;;16.10;99.90;;;15.99;100.00;96155.91;5028284;28;20040;-40
2023/09/21 04:47:24;;;;;;;2.47;1.90;;;16.20;99.90;;;15.97;100.00;96150.72;5030166;28;20029;-40
2023/09/21 04:49:53;;;;;;;4.03;1.95;;;16.20;99.90;;;16.01;100.00;96146.84;5029362;28;20033;-39
2023/09/21 04:52:21;;;;;;;3.42;1.70;;;16.20;99.90;;;16.04;100.00;96145.72;5027685;28;20061;-39
2023/09/21 04:54:51;;;;;;;2.83;1.85;;;16.20;99.90;;;16.07;100.00;96145.50;5025934;28;20083;-39
2023/09/21 04:57:18;;;;;;;2.72;1.80;;;16.20;99.90;;;16.09;100.00;96143.56;5032739;28;20075;-39
2023/09/21 04:59:44;;;;;;;5.22;1.90;;;16.30;99.90;;;16.10;100.00;96147.09;5025165;28;20059;-39
2023/09/21 05:02:11;;;;;;;3.40;2.15;;;16.30;99.90;;;16.10;100.00;96145.28;5014161;28;20037;-40
2023/09/21 05:04:36;;;;;;;3.45;2.03;;;16.30;99.90;;;16.12;100.00;96143.34;5024403;28;20021;-41
2023/09/21 05:07:02;;;;;;;3.53;2.20;;;16.30;99.90;;;16.12;100.00;96146.00;5022725;28;20025;-41
2023/09/21 05:09:28;;;;;;;3.30;1.98;;;16.30;99.90;;;16.12;100.00;96142.50;5015755;28;20602;-39
2023/09/21 05:11:54;;;;;;;3.20;2.22;;;16.30;99.90;;;16.13;100.00;96146.81;5016275;28;20064;-40
2023/09/21 05:14:21;;;;;;;2.38;1.83;;;16.30;99.90;;;16.16;100.00;96139.44;5029431;28;20025;-39
2023/09/21 05:16:47;;;;;;;2.95;2.00;;;16.30;99.90;;;16.15;100.00;96121.81;5023919;28;20261;-39
2023/09/21 05:19:14;;;;;;;2.60;1.88;;;16.30;99.90;;;16.18;100.00;96132.19;5024447;28;20025;-40
2023/09/21 05:21:40;;;;;;;2.78;1.70;;;16.30;99.90;;;16.11;100.00;96106.22;5024655;28;20063;-40
2023/09/21 05:24:07;;;;;;;2.95;2.08;;;16.40;99.90;;;16.22;100.00;96127.47;5029301;28;20041;-40
2023/09/21 05:26:33;;;;;;;3.60;1.95;;;16.40;99.90;;;16.26;100.00;96128.06;5016796;28;20499;-39
2023/09/21 05:28:58;;;;;;;1.90;1.70;;;16.40;99.90;;;16.30;100.00;96124.22;5025518;28;20392;-38
2023/09/21 05:31:24;;;;;;;5.93;2.10;;;16.50;99.90;;;16.34;100.00;96123.00;5025743;28;20554;-39
2023/09/21 05:33:50;;;;;;;1.88;1.50;;;16.50;99.90;;;16.37;100.00;96125.41;5025555;28;20118;-41
2023/09/21 05:36:15;;;;;;;1.98;1.65;;;16.50;99.90;;;16.40;100.00;96127.81;5031088;28;20484;-39
2023/09/21 05:38:41;;;;;;;2.88;1.90;;;16.50;99.90;;;16.39;100.00;96124.31;5015046;28;20336;-39
2023/09/21 05:41:07;;;;;;;2.58;1.75;;;16.60;99.90;;;16.50;100.00;96127.94;5029347;28;20444;-39
2023/09/21 05:43:32;;;;;;;2.47;1.92;;;16.60;99.90;;;16.54;100.00;96132.84;5032856;28;20094;-40
2023/09/21 05:45:58;;;;;;;3.53;2.03;;;16.70;99.90;;;16.57;100.00;96121.97;5031950;28;20052;-39
2023/09/21 05:48:24;;;;;;;3.60;2.25;;;16.70;99.90;;;16.61;100.00;96118.09;5036953;28;20059;-41
2023/09/21 05:50:50;;;;;;;4.43;2.40;;;16.80;99.90;;;16.66;100.00;96116.88;5015821;28;20319;-38
2023/09/21 05:53:16;;;;;;;3.35;2.42;;;16.80;99.90;;;16.70;100.00;96108.50;5033184;28;20032;-39
2023/09/21 05:55:45;;;;;;;3.47;2.10;;;16.90;99.90;;;16.73;100.00;96099.44;5031557;28;20037;-39
2023/09/21 05:58:10;;;;;;;3.33;2.00;;;16.90;99.90;;;16.87;100.00;96108.97;5031542;28;20033;-39
2023/09/21 06:00:36;;;;;;;2.75;1.92;;;17.00;99.90;;;16.91;100.00;96111.25;5027536;28;20049;-39
2023/09/21 06:03:02;;;;;;;3.42;2.28;;;17.00;99.90;;;16.94;100.00;96121.66;5033969;28;20511;-39
2023/09/21 06:05:29;;;;;;;3.45;2.10;;;17.10;99.90;;;16.98;100.00;96115.09;5036791;28;20037;-40
2023/09/21 06:07:56;;;;;;;5.28;2.08;;;17.10;99.90;;;17.02;100.00;96114.84;5033777;28;20568;-39
2023/09/21 06:10:31;;;;;;;4.55;2.47;;;17.10;99.90;;;17.04;100.00;96121.72;5035600;28;20036;-40
2023/09/21 06:12:57;;;;;;;3.55;2.13;;;17.20;99.90;;;17.08;100.00;96117.81;5032784;28;20041;-39
2023/09/21 06:15:23;;;;;;;3.10;2.13;;;17.20;99.90;;;17.15;100.00;96112.84;5032829;28;20338;-38
2023/09/21 06:17:49;;;;;;;3.47;2.13;;;17.30;99.90;;;17.21;100.00;96115.00;5029247;28;20042;-39
2023/09/21 06:20:15;;;;;;;4.18;2.30;;;17.30;99.90;;;17.26;100.00;96110.09;5036544;28;20459;-41
2023/09/21 06:22:41;;;;;;;3.83;2.28;;;17.40;99.90;;;17.33;100.00;96118.44;5036164;28;20116;-40
2023/09/21 06:25:07;;;;;;;3.55;2.25;;;17.40;99.90;;;17.37;100.00;96114.53;5035282;28;20480;-39
2023/09/21 06:27:33;;;;;;;3.55;2.22;;;17.50;99.90;;;17.40;100.00;96108.94;5035028;28;20119;-39
2023/09/21 06:29:59;;;;;;;7.45;2.50;;;17.50;99.90;;;17.45;100.00;96105.91;5029343;28;20087;-39
2023/09/21 06:32:25;;;;;;;5.70;2.33;;;17.50;99.90;;;17.50;100.00;96109.03;5031035;28;20041;-40
2023/09/21 06:34:51;;;;;;;4.13;2.45;;;17.60;99.90;;;17.56;100.00;96103.16;5026988;28;20448;-40
2023/09/21 06:37:19;;;;;;;3.60;2.30;;;17.70;99.90;;;17.65;100.00;96104.19;5032654;28;20041;-39
2023/09/21 06:39:45;;;;;;;4.50;2.03;;;17.80;99.90;;;17.73;100.00;96097.22;5032395;28;20045;-41
2023/09/21 06:42:11;;;;;;;4.82;2.20;;;17.80;99.90;;;17.83;100.00;96099.91;5029327;28;20083;-39
2023/09/21 06:44:37;;;;;;;3.90;2.30;;;17.90;99.90;;;17.81;100.00;96091.22;5012243;28;20309;-39
2023/09/21 06:47:03;;;;;;;3.42;2.10;;;18.00;99.90;;;17.94;100.00;96107.00;5024203;28;20135;-39
2023/09/21 06:49:29;;;;;;;4.47;2.17;;;18.10;99.90;;;17.98;100.00;96104.94;5031399;28;20028;-39
2023/09/21 06:51:56;;;;;;;3.13;2.33;;;18.10;99.90;;;17.97;100.00;96105.91;5028079;28;20285;-39
2023/09/21 06:54:23;;;;;;;6.22;2.30;;;18.10;99.90;;;18.04;100.00;96112.41;5031504;28;20057;-40
2023/09/21 06:56:49;;;;;;;4.53;2.00;;;18.20;99.90;;;18.07;100.00;96102.31;5029218;28;20020;-40
2023/09/21 06:59:15;;;;;;;7.47;3.08;;;18.20;99.90;;;18.09;100.00;96100.34;5031882;28;20061;-38
2023/09/21 07:01:41;;;;;;;4.28;2.42;;;18.30;99.90;;;18.15;100.00;96112.31;5017300;28;20040;-39
2023/09/21 07:04:07;;;;;;;3.63;2.42;;;18.30;99.90;;;18.27;100.00;96107.72;5034592;28;20041;-39
2023/09/21 07:06:33;;;;;;;5.22;2.42;;;18.40;99.90;;;18.37;100.00;96113.06;5034712;28;20044;-41
2023/09/21 07:09:00;;;;;;;4.60;2.60;;;18.50;99.90;;;18.47;100.00;96103.28;5031776;28;20048;-40
2023/09/21 07:11:26;;;;;;;4.53;2.53;;;18.60;99.90;;;18.55;100.00;96106.09;5033455;28;20020;-39
2023/09/21 07:13:52;;;;;;;7.32;2.60;;;18.60;99.90;;;18.64;100.00;96107.09;5032749;28;20048;-41
2023/09/21 07:16:22;;;;;;;4.93;2.40;;;18.70;99.90;;;18.80;100.00;96104.72;5033707;28;20045;-39
2023/09/21 07:18:48;;;;;;;3.60;2.10;;;18.90;99.90;;;18.98;100.00;96104.88;5032981;28;20079;-41
2023/09/21 07:21:14;;;;;;;3.70;2.10;;;19.10;99.90;;;19.21;100.00;96110.78;5031654;28;21842;-39
2023/09/21 07:23:40;;;;;;;7.07;2.00;;;19.30;99.90;;;19.41;100.00;96100.91;5032586;28;20099;-39
2023/09/21 07:26:06;;;;;;;4.22;2.15;;;19.50;99.90;;;19.62;100.00;96100.75;5031737;28;20032;-39
2023/09/21 07:28:32;;;;;;;5.70;2.53;;;19.70;99.90;;;19.75;100.00;96097.78;5032432;28;20377;-38
2023/09/21 07:30:58;;;;;;;3.45;2.25;;;19.90;99.90;;;19.88;100.00;96104.66;5029142;28;20036;-39
2023/09/21 07:33:23;;;;;;;2.92;2.10;;;20.00;99.90;;;19.89;100.00;96085.78;5029436;28;20419;-38
2023/09/21 07:35:51;;;;;;;3.60;2.38;;;20.10;99.90;;;20.05;100.00;96098.53;5031895;28;20723;-39
2023/09/21 07:38:19;;;;;;;4.05;2.58;;;20.10;99.90;;;20.15;100.00;96095.81;5014487;28;20025;-40
2023/09/21 07:40:45;;;;;;;4.50;2.63;;;20.30;99.90;;;20.21;100.00;96098.75;5028343;28;20536;-39
2023/09/21 07:43:12;;;;;;;5.32;2.20;;;20.30;99.90;;;20.26;100.00;96090.28;5030637;28;20732;-39
2023/09/21 07:45:38;;;;;;;4.38;2.38;;;20.30;99.90;;;20.28;100.00;96090.09;5032370;28;20120;-39
2023/09/21 07:48:05;;;;;;;7.50;2.60;;;20.30;99.90;;;20.29;100.00;96089.97;5029085;28;20033;-39
2023/09/21 07:50:34;;;;;;;6.85;2.20;;;20.30;99.90;;;20.29;100.00;96078.41;5031887;28;20078;-40
2023/09/21 07:53:03;;;;;;;4.97;2.38;;;20.30;99.90;;;20.29;100.00;96071.22;5034031;28;20036;-39
2023/09/21 07:55:34;;;;;;;3.58;2.03;;;20.40;99.90;;;20.32;100.00;96062.91;5012254;28;20033;-40
2023/09/21 07:57:59;;;;;;;3.88;2.30;;;20.40;99.90;;;20.36;100.00;96063.44;5028493;28;20037;-39
2023/09/21 08:00:25;;;;;;;3.55;2.40;;;20.40;99.90;;;20.38;100.00;96064.97;5030571;28;20039;-39
2023/09/21 08:02:53;;;;;;;5.43;2.58;;;20.40;99.90;;;20.36;100.00;96060.75;5033259;28;20372;-39
2023/09/21 08:05:19;;;;;;;5.32;2.97;;;20.40;99.90;;;20.36;100.00;96050.06;5032414;28;20827;-40
2023/09/21 08:07:45;;;;;;;2.80;1.88;;;20.40;99.90;;;20.41;100.00;96032.53;5032151;28;20037;-39
2023/09/21 08:10:11;;;;;;;4.78;2.45;;;20.60;99.90;;;20.74;100.00;96037.41;5028152;28;20051;-39
2023/09/21 08:12:40;;;;;;;3.00;2.03;;;20.80;99.90;;;21.13;100.00;96042.44;5024676;28;20548;-41
2023/09/21 08:15:06;;;;;;;7.03;2.05;;;21.20;99.90;;;21.57;99.30;96039.78;5033362;28;20032;-40
2023/09/21 08:17:33;;;;;;;3.80;2.28;;;21.60;99.90;;;21.92;95.43;96044.16;5035744;28;20231;-40
2023/09/21 08:19:59;;;;;;;3.47;2.33;;;22.00;99.90;;;22.24;89.22;96031.88;5032412;28;20040;-41
2023/09/21 08:22:28;;;;;;;5.57;2.45;;;22.30;99.90;;;22.53;86.93;96046.75;5034397;28;20176;-39
2023/09/21 08:24:54;;;;;;;5.97;2.40;;;22.60;99.90;;;22.59;80.21;96050.63;5006949;28;20108;-40
2023/09/21 08:27:22;;;;;;;3.78;2.10;;;22.70;99.90;;;22.57;88.48;96048.09;5031541;28;20048;-40
2023/09/21 08:29:49;;;;;;;2.95;2.13;;;22.60;99.90;;;22.53;82.67;96041.38;5028163;28;20060;-40
2023/09/21 08:32:15;;;;;;;5.00;2.35;;;22.60;99.90;;;22.58;84.02;96041.72;5022355;28;20474;-42
2023/09/21 08:34:44;;;;;;;2.60;1.80;;;22.60;99.90;;;22.64;84.69;96041.06;5035846;28;20123;-39
2023/09/21 08:37:10;;;;;;;4.75;2.15;;;22.70;99.90;;;22.68;84.22;96041.56;5037727;28;20079;-40
2023/09/21 08:39:36;;;;;;;5.82;2.53;;;22.80;99.90;;;22.74;82.28;96046.31;5035378;28;20043;-40
2023/09/21 08:42:03;;;;;;;3.50;2.17;;;22.80;99.90;;;22.79;82.81;96043.97;5031721;28;20040;-39
2023/09/21 08:44:30;;;;;;;5.82;2.15;;;22.90;99.90;;;22.90;79.33;96048.19;5019614;28;20025;-40
2023/09/21 08:46:56;;;;;;;3.40;2.40;;;22.90;99.90;;;23.02;77.55;96046.84;5026561;28;20236;-40
2023/09/21 08:49:22;;;;;;;4.13;2.33;;;23.00;99.90;;;23.20;76.11;96049.41;5026358;28;20043;-41
2023/09/21 08:51:51;;;;;;;4.53;2.90;;;23.20;99.90;;;23.35;78.61;96048.72;5018560;28;20366;-39
2023/09/21 08:54:17;;;;;;;5.03;2.30;;;23.40;99.90;;;23.54;72.12;96052.88;5029459;28;20037;-39
2023/09/21 08:56:46;;;;;;;4.10;2.22;;;23.50;99.90;;;23.61;73.62;96051.19;5032056;28;20037;-43
2023/09/21 08:59:15;;;;;;;4.80;1.95;;;23.60;99.90;;;23.71;72.01;96057.22;5020424;28;20025;-41
2023/09/21 09:01:42;;;;;;;3.70;2.20;;;23.70;99.90;;;23.67;70.32;96030.81;5031593;28;20107;-40
2023/09/21 09:04:08;;;;;;;2.95;2.05;;;23.80;99.90;;;24.07;72.08;96045.22;5021243;28;20029;-39
2023/09/21 09:06:34;;;;;;;5.07;2.47;;;24.10;99.90;;;24.25;67.46;96051.19;5018493;28;20047;-39
2023/09/21 09:09:00;;;;;;;2.47;1.80;;;24.30;99.90;;;24.45;69.17;96048.91;5034567;28;22024;-39
2023/09/21 09:11:40;;;;;;;5.10;2.10;;;24.50;99.90;;;24.55;64.02;96051.44;5032770;28;20021;-39
2023/09/21 09:14:19;;;;;;;2.95;1.80;;;24.60;99.90;;;24.58;69.57;96046.53;5037404;28;20036;-40
2023/09/21 09:16:46;;;;;;;4.35;1.88;;;24.60;99.90;;;24.62;67.38;96041.63;5037572;28;20036;-39
2023/09/21 09:19:12;;;;;;;4.07;2.00;;;24.70;99.90;;;24.67;64.67;96031.13;5027938;28;20029;-40
2023/09/21 09:21:40;;;;;;;2.45;2.03;;;24.70;99.90;;;24.67;64.42;96003.34;5025760;28;20145;-39
2023/09/21 09:24:08;;;;;;;3.38;2.28;;;24.80;99.90;;;24.79;65.68;96018.09;5032835;28;20037;-37
2023/09/21 09:26:38;;;;;;;4.93;1.95;;;24.80;99.90;;;24.76;59.85;96007.66;5032373;28;20619;-38
2023/09/21 09:29:09;;;;;;;3.50;2.00;;;24.80;99.90;;;24.87;62.32;96009.09;5030297;28;20027;-40
2023/09/21 09:31:40;;;;;;;3.25;1.83;;;24.90;99.90;;;24.84;64.12;95993.31;5031882;28;20061;-39
2023/09/21 09:34:05;;;;;;;7.35;2.17;;;24.90;99.90;;;24.91;62.61;96003.19;5033600;28;20086;-41
2023/09/21 09:36:32;;;;;;;3.15;1.75;;;25.00;99.90;;;24.96;60.93;95995.38;5033946;28;21452;-40
2023/09/21 09:39:07;;;;;;;4.38;1.60;;;25.00;99.90;;;25.05;59.01;95993.47;5032237;28;20085;-40
2023/09/21 09:41:34;;;;;;;2.38;1.70;;;25.10;99.90;;;24.98;60.35;95992.50;5034697;28;20029;-40
2023/09/21 09:44:05;;;;;;;2.85;1.55;;;25.10;99.90;;;24.88;58.57;96006.22;5032823;28;20032;-40
2023/09/21 09:46:37;;;;;;;3.95;1.70;;;25.00;99.90;;;24.83;59.44;96005.09;5033178;28;20035;-41
2023/09/21 09:49:05;;;;;;;2.28;1.55;;;25.00;99.90;;;24.90;60.25;95996.09;5034196;28;20028;-41
2023/09/21 09:51:56;;;;;;;3.33;1.77;;;25.00;99.90;;;24.96;57.87;95994.53;5036827;28;20381;-38
2023/09/21 09:54:24;;;;;;;3.47;2.00;;;25.10;99.90;;;24.95;56.38;95996.41;5031591;28;20041;-41
2023/09/21 09:56:52;;;;;;;4.47;1.80;;;25.00;99.90;;;25.01;56.54;95992.13;5030425;28;20037;-39
2023/09/21 09:59:20;;;;;;;5.15;2.17;;;25.00;99.90;;;24.92;55.25;95990.53;5035195;28;20036;-41
2023/09/21 10:01:49;;;;;;;3.08;1.80;;;24.90;99.90;;;24.94;58.82;95985.78;5033433;28;20061;-41
2023/09/21 10:04:18;;;;;;;3.13;1.67;;;24.90;99.90;;;24.90;57.33;95966.44;5016044;28;20468;-41
2023/09/21 10:06:47;;;;;;;2.72;1.70;;;24.90;99.90;;;24.96;57.33;95973.81;5014077;28;20029;-42
2023/09/21 10:09:14;;;;;;;3.20;1.88;;;25.00;99.90;;;24.92;56.87;95969.78;5029283;28;20020;-39
2023/09/21 10:11:48;;;;;;;4.80;1.85;;;25.00;99.90;;;24.84;55.86;95967.16;5016061;28;20469;-40
2023/09/21 10:14:17;;;;;;;2.10;1.70;;;25.00;99.70;;;24.97;56.00;95961.16;5016534;28;20137;-41
2023/09/21 10:16:53;;;;;;;2.60;1.50;;;25.10;99.90;;;25.13;56.14;95961.00;5013742;28;20489;-41
2023/09/21 10:19:29;;;;;;;4.00;1.60;;;25.20;99.90;;;25.25;53.63;95953.34;5028391;28;20455;-38